createdAt,value
2022-08-17T00:00:05.830Z,94786.47
2022-08-17T00:03:00.816Z,94787.84
2022-08-17T00:05:32.586Z,94790.84
2022-08-17T00:07:59.661Z,94790.25
2022-08-17T00:10:27.263Z,94798.94
2022-08-17T00:12:54.446Z,94801.44
2022-08-17T00:15:23.236Z,94796.63
2022-08-17T00:17:51.672Z,94788.25
2022-08-17T00:20:19.178Z,94801.63
2022-08-17T00:22:50.535Z,94795.66
2022-08-17T00:25:20.211Z,94797.25
2022-08-17T00:27:47.251Z,94795.53
2022-08-17T00:30:14.655Z,94797.16
2022-08-17T00:33:14.541Z,94786.84
2022-08-17T00:35:34.482Z,94792.56
2022-08-17T00:38:01.621Z,94795.41
2022-08-17T00:40:42.508Z,94792.41
2022-08-17T00:43:36.616Z,94787.94
2022-08-17T00:46:17.374Z,94779.78
2022-08-17T00:48:45.341Z,94789.13
2022-08-17T00:51:34.061Z,94780.09
2022-08-17T00:54:15.463Z,94772.88
2022-08-17T00:56:46.513Z,94784.19
2022-08-17T00:59:17.905Z,94781.06
2022-08-17T01:01:45.543Z,94782.66
2022-08-17T01:04:14.219Z,94776.94
2022-08-17T01:06:43.090Z,94788.22
2022-08-17T01:09:09.965Z,94786.84
2022-08-17T01:11:39.675Z,94784.50
2022-08-17T01:14:09.107Z,94784.91
2022-08-17T01:16:37.569Z,94789.38
2022-08-17T01:19:16.325Z,94791.06
2022-08-17T01:22:01.337Z,94792.50
2022-08-17T01:24:28.726Z,94792.34
2022-08-17T01:26:56.686Z,94788.00
2022-08-17T01:29:25.405Z,94788.59
2022-08-17T01:31:58.513Z,94786.81
2022-08-17T01:34:38.048Z,94780.84
2022-08-17T01:37:11.738Z,94779.09
2022-08-17T01:39:42.255Z,94783.59
2022-08-17T01:42:23.640Z,94785.84
2022-08-17T01:44:56.917Z,94780.66
2022-08-17T01:47:24.577Z,94770.72
2022-08-17T01:49:51.785Z,94778.75
2022-08-17T01:52:19.508Z,94775.34
2022-08-17T01:54:49.167Z,94783.84
2022-08-17T01:57:16.102Z,94791.56
2022-08-17T01:59:43.064Z,94776.91
2022-08-17T02:02:10.450Z,94777.13
2022-08-17T02:04:37.531Z,94792.25
2022-08-17T02:07:04.578Z,94792.66
2022-08-17T02:09:31.579Z,94798.09
2022-08-17T02:12:37.195Z,94805.34
2022-08-17T02:14:51.398Z,94785.66
2022-08-17T02:17:18.303Z,94796.56
2022-08-17T02:19:45.254Z,94796.81
2022-08-17T02:22:13.878Z,94797.09
2022-08-17T02:24:58.707Z,94784.41
2022-08-17T02:27:36.011Z,94794.72
2022-08-17T02:31:01.667Z,94786.91
2022-08-17T02:32:54.369Z,94791.91
2022-08-17T02:35:22.758Z,94792.56
2022-08-17T02:37:55.402Z,94791.75
2022-08-17T02:40:35.871Z,94789.34
2022-08-17T02:43:04.381Z,94786.94
2022-08-17T02:45:31.270Z,94796.22
2022-08-17T02:47:58.209Z,94801.47
2022-08-17T02:50:26.182Z,94798.25
2022-08-17T02:53:01.627Z,94803.50
2022-08-17T02:55:38.264Z,94802.88
2022-08-17T02:58:05.742Z,94805.16
2022-08-17T03:00:36.800Z,94801.56
2022-08-17T03:03:06.123Z,94801.56
2022-08-17T03:05:35.724Z,94799.13
2022-08-17T03:08:03.430Z,94801.16
2022-08-17T03:10:31.304Z,94804.19
2022-08-17T03:12:58.435Z,94814.28
2022-08-17T03:15:28.892Z,94810.91
2022-08-17T03:17:56.920Z,94818.16
2022-08-17T03:20:25.867Z,94819.38
2022-08-17T03:22:56.149Z,94823.00
2022-08-17T03:25:37.019Z,94815.41
2022-08-17T03:28:06.502Z,94812.97
2022-08-17T03:30:34.315Z,94814.41
2022-08-17T03:33:03.857Z,94823.84
2022-08-17T03:35:33.056Z,94817.00
2022-08-17T03:38:01.355Z,94820.63
2022-08-17T03:40:55.354Z,94827.47
2022-08-17T03:43:16.660Z,94825.47
2022-08-17T03:46:02.493Z,94828.28
2022-08-17T03:48:48.046Z,94829.69
2022-08-17T03:51:38.752Z,94822.44
2022-08-17T03:54:25.251Z,94830.84
2022-08-17T03:57:07.459Z,94832.91
2022-08-17T03:59:36.001Z,94833.31
2022-08-17T04:02:17.585Z,94830.28
2022-08-17T04:04:44.701Z,94841.16
2022-08-17T04:07:11.750Z,94833.31
2022-08-17T04:09:38.771Z,94844.38
2022-08-17T04:12:06.122Z,94844.19
2022-08-17T04:14:47.783Z,94848.97
2022-08-17T04:17:35.384Z,94844.53
2022-08-17T04:20:16.256Z,94832.31
2022-08-17T04:23:11.672Z,94850.75
2022-08-17T04:25:42.248Z,94864.00
2022-08-17T04:28:15.851Z,94851.97
2022-08-17T04:30:45.378Z,94863.97
2022-08-17T04:33:16.267Z,94867.00
2022-08-17T04:35:50.240Z,94878.47
2022-08-17T04:38:23.388Z,94861.97
2022-08-17T04:41:09.927Z,94869.78
2022-08-17T04:43:38.433Z,94869.94
2022-08-17T04:46:08.803Z,94878.19
2022-08-17T04:48:39.776Z,94874.28
2022-08-17T04:51:10.370Z,94877.88
2022-08-17T04:53:39.889Z,94881.03
2022-08-17T04:56:07.283Z,94887.66
2022-08-17T04:58:34.319Z,94883.78
2022-08-17T05:01:01.838Z,94882.94
2022-08-17T05:03:29.301Z,94882.69
2022-08-17T05:05:56.205Z,94885.84
2022-08-17T05:08:23.152Z,94879.56
2022-08-17T05:10:50.510Z,94872.66
2022-08-17T05:13:22.116Z,94880.03
2022-08-17T05:15:52.987Z,94878.75
2022-08-17T05:18:19.917Z,94883.72
2022-08-17T05:20:46.889Z,94886.06
2022-08-17T05:23:16.779Z,94885.84
2022-08-17T05:25:47.650Z,94894.88
2022-08-17T05:28:16.903Z,94888.72
2022-08-17T05:30:49.348Z,94886.84
2022-08-17T05:33:23.055Z,94887.28
2022-08-17T05:35:52.908Z,94891.25
2022-08-17T05:38:22.568Z,94892.78
2022-08-17T05:40:50.396Z,94898.53
2022-08-17T05:43:23.518Z,94893.31
2022-08-17T05:45:55.521Z,94891.13
2022-08-17T05:48:39.406Z,94895.41
2022-08-17T05:51:32.154Z,94889.56
2022-08-17T05:54:20.762Z,94883.56
2022-08-17T05:57:11.937Z,94884.59
2022-08-17T06:00:14.327Z,94885.41
2022-08-17T06:02:47.085Z,94895.50
2022-08-17T06:05:19.958Z,94894.59
2022-08-17T06:08:14.616Z,94885.94
2022-08-17T06:10:53.989Z,94893.34
2022-08-17T06:13:52.073Z,94887.53
2022-08-17T06:16:32.945Z,94889.75
2022-08-17T06:19:05.889Z,94884.47
2022-08-17T06:21:39.734Z,94883.19
2022-08-17T06:24:17.158Z,94888.22
2022-08-17T06:26:45.951Z,94889.00
2022-08-17T06:29:24.839Z,94890.72
2022-08-17T06:31:52.276Z,94882.22
2022-08-17T06:34:21.113Z,94894.47
2022-08-17T06:37:03.743Z,94882.53
2022-08-17T06:39:58.490Z,94888.31
2022-08-17T06:43:05.460Z,94875.06
2022-08-17T06:45:39.516Z,94878.47
2022-08-17T06:48:24.965Z,94868.56
2022-08-17T06:51:14.957Z,94871.28
2022-08-17T06:53:52.047Z,94878.81
2022-08-17T06:56:52.777Z,94864.66
2022-08-17T06:59:35.677Z,94869.97
2022-08-17T07:02:29.219Z,94865.72
2022-08-17T07:05:14.330Z,94863.47
2022-08-17T07:08:02.058Z,94874.00
2022-08-17T07:10:36.199Z,94873.66
2022-08-17T07:13:38.307Z,94877.09
2022-08-17T07:16:16.017Z,94869.38
2022-08-17T07:18:43.931Z,94876.19
2022-08-17T07:21:26.687Z,94870.09
2022-08-17T07:24:30.119Z,94875.34
2022-08-17T07:27:17.118Z,94866.25
2022-08-17T07:29:50.617Z,94871.38
2022-08-17T07:32:22.997Z,94877.84
2022-08-17T07:35:11.208Z,94869.44
2022-08-17T07:37:40.259Z,94879.09
2022-08-17T07:40:20.720Z,94868.09
2022-08-17T07:43:11.469Z,94870.84
2022-08-17T07:46:30.233Z,94868.72
2022-08-17T07:49:16.711Z,94868.25
2022-08-17T07:51:43.960Z,94869.41
2022-08-17T07:54:22.508Z,94868.16
2022-08-17T07:57:25.404Z,94865.06
2022-08-17T08:00:02.158Z,94856.13
2022-08-17T08:02:42.406Z,94856.41
2022-08-17T08:05:49.456Z,94858.00
2022-08-17T08:08:27.307Z,94855.91
2022-08-17T08:10:59.888Z,94851.69
2022-08-17T08:13:30.461Z,94857.53
2022-08-17T08:16:14.087Z,94861.53
2022-08-17T08:18:55.066Z,94860.75
2022-08-17T08:21:51.536Z,94855.22
2022-08-17T08:25:03.315Z,94846.50
2022-08-17T08:28:11.498Z,94855.00
2022-08-17T08:30:43.718Z,94852.84
2022-08-17T08:33:32.171Z,94840.66
2022-08-17T08:36:11.174Z,94824.16
2022-08-17T08:39:09.353Z,94831.88
2022-08-17T08:41:49.401Z,94831.06
2022-08-17T08:45:01.051Z,94823.59
2022-08-17T08:47:23.611Z,94829.13
2022-08-17T08:50:37.210Z,94825.19
2022-08-17T08:53:30.967Z,94823.56
2022-08-17T08:56:04.812Z,94818.22
2022-08-17T08:58:41.773Z,94822.69
2022-08-17T09:01:31.375Z,94825.75
2022-08-17T09:04:24.197Z,94826.19
2022-08-17T09:07:16.402Z,94822.63
2022-08-17T09:09:59.844Z,94831.13
2022-08-17T09:12:53.563Z,94820.38
2022-08-17T09:15:25.855Z,94820.97
2022-08-17T09:18:59.178Z,94807.06
2022-08-17T09:20:57.509Z,94816.53
2022-08-17T09:23:44.889Z,94822.59
2022-08-17T09:26:22.234Z,94821.78
2022-08-17T09:28:56.018Z,94821.69
2022-08-17T09:31:46.494Z,94821.69
2022-08-17T09:34:28.176Z,94818.25
2022-08-17T09:37:18.845Z,94824.59
2022-08-17T09:40:16.647Z,94814.06
2022-08-17T09:43:09.830Z,94811.72
2022-08-17T09:45:46.522Z,94814.84
2022-08-17T09:48:50.568Z,94815.69
2022-08-17T09:51:24.738Z,94819.06
2022-08-17T09:53:52.068Z,94811.47
2022-08-17T09:56:18.980Z,94808.69
2022-08-17T09:58:56.607Z,94809.44
2022-08-17T10:01:57.240Z,94804.44
2022-08-17T10:04:48.317Z,94809.75
2022-08-17T10:07:41.561Z,94812.66
2022-08-17T10:10:14.802Z,94800.09
2022-08-17T10:13:05.472Z,94801.09
2022-08-17T10:16:29.388Z,94799.50
2022-08-17T10:19:09.597Z,94796.63
2022-08-17T10:22:00.788Z,94799.66
2022-08-17T10:25:01.877Z,94789.53
2022-08-17T10:27:52.971Z,94794.28
2022-08-17T10:30:23.402Z,94800.06
2022-08-17T10:32:55.496Z,94790.53
2022-08-17T10:35:41.125Z,94784.69
2022-08-17T10:38:26.222Z,94790.56
2022-08-17T10:40:56.338Z,94781.88
2022-08-17T10:44:40.231Z,94781.47
2022-08-17T10:47:01.657Z,94785.88
2022-08-17T10:49:34.726Z,94774.78
2022-08-17T10:52:25.007Z,94773.09
2022-08-17T10:54:58.212Z,94776.41
2022-08-17T10:57:35.016Z,94780.72
2022-08-17T11:00:17.453Z,94764.75
2022-08-17T11:02:50.338Z,94766.41
2022-08-17T11:05:52.465Z,94772.41
2022-08-17T11:08:48.710Z,94771.44
2022-08-17T11:11:15.566Z,94768.88
2022-08-17T11:13:43.344Z,94759.97
2022-08-17T11:16:28.586Z,94769.34
2022-08-17T11:19:10.734Z,94775.00
2022-08-17T11:22:04.853Z,94769.78
2022-08-17T11:24:40.067Z,94772.56
2022-08-17T11:27:33.307Z,94761.78
2022-08-17T11:30:02.095Z,94758.41
2022-08-17T11:32:34.810Z,94779.06
2022-08-17T11:35:07.855Z,94762.13
2022-08-17T11:38:15.926Z,94761.63
2022-08-17T11:40:52.201Z,94769.66
2022-08-17T11:43:43.057Z,94770.03
2022-08-17T11:47:00.985Z,94776.78
2022-08-17T11:50:16.916Z,94779.66
2022-08-17T11:52:49.811Z,94774.84
2022-08-17T11:55:35.857Z,94783.94
2022-08-17T11:58:06.690Z,94788.97
2022-08-17T12:00:45.523Z,94789.69
2022-08-17T12:03:33.132Z,94795.47
2022-08-17T12:06:17.647Z,94799.09
2022-08-17T12:09:00.661Z,94793.09
2022-08-17T12:12:12.894Z,94799.56
2022-08-17T12:17:40.892Z,94803.59
2022-08-17T12:20:41.093Z,94804.88
2022-08-17T12:23:24.759Z,94796.66
2022-08-17T12:26:04.092Z,94793.00
2022-08-17T12:28:35.337Z,94795.44
2022-08-17T12:31:12.013Z,94785.63
2022-08-17T12:33:43.970Z,94786.44
2022-08-17T12:36:15.376Z,94790.44
2022-08-17T12:39:12.964Z,94779.34
2022-08-17T12:41:47.311Z,94779.13
2022-08-17T12:44:24.653Z,94781.41
2022-08-17T12:47:07.884Z,94775.50
2022-08-17T12:49:42.428Z,94764.63
2022-08-17T12:52:12.608Z,94763.81
2022-08-17T12:54:51.541Z,94779.81
2022-08-17T12:57:25.548Z,94764.22
2022-08-17T13:00:00.048Z,94773.09
2022-08-17T13:02:45.265Z,94778.41
2022-08-17T13:05:29.944Z,94770.97
2022-08-17T13:07:59.327Z,94767.81
2022-08-17T13:10:35.603Z,94763.09
2022-08-17T13:13:21.658Z,94761.13
2022-08-17T13:15:53.319Z,94756.72
2022-08-17T13:18:46.019Z,94752.59
2022-08-17T13:21:30.732Z,94754.72
2022-08-17T13:24:00.667Z,94749.34
2022-08-17T13:27:08.632Z,94753.19
2022-08-17T13:29:51.491Z,94753.56
2022-08-17T13:32:33.414Z,94748.22
2022-08-17T13:35:12.198Z,94760.91
2022-08-17T13:38:01.593Z,94752.81
2022-08-17T13:40:35.837Z,94750.16
2022-08-17T13:43:05.526Z,94744.09
2022-08-17T13:45:39.156Z,94747.84
2022-08-17T13:48:11.947Z,94742.19
2022-08-17T13:50:54.820Z,94730.44
2022-08-17T13:53:26.826Z,94733.00
2022-08-17T13:55:59.547Z,94734.88
2022-08-17T13:58:30.250Z,94735.88
2022-08-17T14:00:57.424Z,94734.88
2022-08-17T14:03:25.026Z,94730.53
2022-08-17T14:05:53.051Z,94727.16
2022-08-17T14:08:20.953Z,94733.19
2022-08-17T14:10:58.823Z,94721.88
2022-08-17T14:13:25.779Z,94711.56
2022-08-17T14:15:54.797Z,94723.47
2022-08-17T14:18:35.699Z,94724.84
2022-08-17T14:21:11.975Z,94719.00
2022-08-17T14:23:38.964Z,94723.34
2022-08-17T14:26:06.204Z,94722.75
2022-08-17T14:28:33.138Z,94726.22
2022-08-17T14:31:03.624Z,94723.66
2022-08-17T14:33:30.567Z,94727.13
2022-08-17T14:35:57.825Z,94721.28
2022-08-17T14:38:25.381Z,94720.09
2022-08-17T14:40:52.652Z,94718.31
2022-08-17T14:43:20.608Z,94708.44
2022-08-17T14:45:47.681Z,94721.06
2022-08-17T14:48:14.663Z,94711.88
2022-08-17T14:50:43.385Z,94726.47
2022-08-17T14:53:13.641Z,94715.81
2022-08-17T14:55:40.864Z,94709.94
2022-08-17T14:58:09.252Z,94717.41
2022-08-17T15:00:37.447Z,94713.91
2022-08-17T15:03:05.537Z,94724.00
2022-08-17T15:05:36.814Z,94726.91
2022-08-17T15:08:05.750Z,94725.13
2022-08-17T15:10:33.092Z,94730.66
2022-08-17T15:13:00.633Z,94725.44
2022-08-17T15:15:28.857Z,94727.31
2022-08-17T15:17:56.094Z,94731.66
2022-08-17T15:20:28.188Z,94730.16
2022-08-17T15:22:57.425Z,94731.53
2022-08-17T15:25:32.777Z,94718.28
2022-08-17T15:28:00.591Z,94730.56
2022-08-17T15:30:28.048Z,94725.50
2022-08-17T15:32:57.820Z,94723.53
2022-08-17T15:35:29.169Z,94720.13
2022-08-17T15:38:08.353Z,94730.56
2022-08-17T15:40:41.462Z,94724.59
2022-08-17T15:43:12.355Z,94731.03
2022-08-17T15:45:40.304Z,94725.53
2022-08-17T15:48:07.738Z,94715.00
2022-08-17T15:50:35.606Z,94727.56
2022-08-17T15:53:03.763Z,94732.06
2022-08-17T15:55:31.357Z,94728.53
2022-08-17T15:57:58.708Z,94732.94
2022-08-17T16:00:28.418Z,94736.72
2022-08-17T16:03:46.978Z,94731.56
2022-08-17T16:05:43.727Z,94721.81
2022-08-17T16:08:11.265Z,94720.47
2022-08-17T16:10:38.491Z,94726.81
2022-08-17T16:13:05.478Z,94727.09
2022-08-17T16:15:44.281Z,94730.09
2022-08-17T16:18:11.695Z,94726.81
2022-08-17T16:20:38.720Z,94733.41
2022-08-17T16:23:05.912Z,94737.34
2022-08-17T16:25:52.000Z,94733.00
2022-08-17T16:28:20.740Z,94742.78
2022-08-17T16:30:47.732Z,94738.47
2022-08-17T16:33:16.810Z,94735.63
2022-08-17T16:35:44.141Z,94736.66
2022-08-17T16:38:12.811Z,94742.66
2022-08-17T16:40:40.664Z,94741.09
2022-08-17T16:43:10.768Z,94737.28
2022-08-17T16:45:40.882Z,94742.34
2022-08-17T16:48:09.463Z,94751.28
2022-08-17T16:50:36.997Z,94741.75
2022-08-17T16:53:10.907Z,94747.81
2022-08-17T16:55:38.628Z,94752.59
2022-08-17T16:58:06.536Z,94749.44
2022-08-17T17:00:34.363Z,94757.75
2022-08-17T17:03:19.768Z,94748.63
2022-08-17T17:05:58.046Z,94745.81
2022-08-17T17:08:44.411Z,94756.22
2022-08-17T17:11:37.177Z,94762.25
2022-08-17T17:14:30.109Z,94760.38
2022-08-17T17:17:28.193Z,94767.03
2022-08-17T17:20:13.672Z,94780.06
2022-08-17T17:23:05.429Z,94773.88
2022-08-17T17:25:45.314Z,94779.63
2022-08-17T17:28:30.322Z,94782.41
2022-08-17T17:31:14.591Z,94782.81
2022-08-17T17:33:51.080Z,94788.75
2022-08-17T17:36:41.843Z,94795.47
2022-08-17T17:39:29.519Z,94790.00
2022-08-17T17:41:59.537Z,94799.06
2022-08-17T17:44:32.347Z,94800.19
2022-08-17T17:47:02.746Z,94797.56
2022-08-17T17:49:45.427Z,94805.03
2022-08-17T17:52:19.585Z,94807.19
2022-08-17T17:55:13.304Z,94813.81
2022-08-17T17:58:01.459Z,94815.69
2022-08-17T18:00:48.219Z,94811.97
2022-08-17T18:03:20.927Z,94813.56
2022-08-17T18:06:12.649Z,94825.78
2022-08-17T18:08:41.816Z,94822.59
2022-08-17T18:11:25.159Z,94833.75
2022-08-17T18:14:18.709Z,94835.31
2022-08-17T18:16:47.621Z,94833.72
2022-08-17T18:19:20.507Z,94835.56
2022-08-17T18:22:02.928Z,94835.53
2022-08-17T18:24:40.320Z,94843.19
2022-08-17T18:27:23.513Z,94844.53
2022-08-17T18:29:53.727Z,94842.63
2022-08-17T18:32:32.060Z,94844.22
2022-08-17T18:35:09.635Z,94852.66
2022-08-17T18:37:50.382Z,94854.25
2022-08-17T18:40:17.464Z,94860.06
2022-08-17T18:43:13.068Z,94865.38
2022-08-17T18:45:43.075Z,94870.09
2022-08-17T18:48:21.382Z,94859.13
2022-08-17T18:50:48.889Z,94860.47
2022-08-17T18:53:39.679Z,94878.50
2022-08-17T18:56:30.587Z,94878.72
2022-08-17T18:59:28.386Z,94872.03
2022-08-17T19:02:09.983Z,94876.78
2022-08-17T19:05:02.040Z,94888.88
2022-08-17T19:07:41.875Z,94879.34
2022-08-17T19:10:46.424Z,94890.44
2022-08-17T19:13:24.376Z,94877.66
2022-08-17T19:16:15.707Z,94889.28
2022-08-17T19:18:52.703Z,94887.03
2022-08-17T19:21:36.747Z,94895.75
2022-08-17T19:24:09.781Z,94881.88
2022-08-17T19:26:51.081Z,94874.63
2022-08-17T19:29:34.254Z,94891.06
2022-08-17T19:32:02.169Z,94892.28
2022-08-17T19:34:34.830Z,94893.84
2022-08-17T19:37:07.053Z,94891.91
2022-08-17T19:39:58.423Z,94900.75
2022-08-17T19:42:31.431Z,94893.28
2022-08-17T19:45:19.606Z,94894.69
2022-08-17T19:48:01.677Z,94901.53
2022-08-17T19:50:29.881Z,94902.50
2022-08-17T19:53:04.104Z,94884.38
2022-08-17T19:55:57.731Z,94890.22
2022-08-17T19:58:52.064Z,94892.47
2022-08-17T20:01:34.834Z,94900.66
2022-08-17T20:04:31.840Z,94895.84
2022-08-17T20:07:16.205Z,94898.44
2022-08-17T20:09:54.256Z,94901.81
2022-08-17T20:12:25.991Z,94904.47
2022-08-17T20:14:57.550Z,94904.69
2022-08-17T20:17:30.534Z,94895.53
2022-08-17T20:20:27.372Z,94900.88
2022-08-17T20:23:08.054Z,94910.00
2022-08-17T20:25:48.046Z,94906.63
2022-08-17T20:28:28.167Z,94901.34
2022-08-17T20:30:56.010Z,94897.34
2022-08-17T20:33:37.405Z,94912.72
2022-08-17T20:36:10.100Z,94911.09
2022-08-17T20:38:42.918Z,94913.19
2022-08-17T20:41:20.993Z,94908.63
2022-08-17T20:43:51.367Z,94914.94
2022-08-17T20:46:36.690Z,94911.28
2022-08-17T20:49:16.642Z,94914.16
2022-08-17T20:52:10.073Z,94902.47
2022-08-17T20:54:54.916Z,94915.69
2022-08-17T20:57:37.098Z,94922.56
2022-08-17T21:00:16.889Z,94913.03
2022-08-17T21:02:49.703Z,94918.84
2022-08-17T21:05:30.354Z,94915.28
2022-08-17T21:08:01.350Z,94916.47
2022-08-17T21:10:34.169Z,94911.53
2022-08-17T21:13:16.263Z,94919.47
2022-08-17T21:16:05.418Z,94911.94
2022-08-17T21:18:55.058Z,94910.84
2022-08-17T21:21:43.328Z,94907.09
2022-08-17T21:24:26.115Z,94909.16
2022-08-17T21:27:01.515Z,94922.34
2022-08-17T21:29:34.095Z,94915.47
2022-08-17T21:32:08.483Z,94919.47
2022-08-17T21:34:45.026Z,94921.56
2022-08-17T21:37:23.335Z,94929.25
2022-08-17T21:40:10.390Z,94930.28
2022-08-17T21:42:45.064Z,94923.53
2022-08-17T21:45:22.268Z,94936.75
2022-08-17T21:48:05.567Z,94940.13
2022-08-17T21:50:32.741Z,94934.19
2022-08-17T21:53:02.401Z,94938.34
2022-08-17T21:55:32.710Z,94935.63
2022-08-17T21:58:24.163Z,94937.63
2022-08-17T22:01:12.094Z,94931.31
2022-08-17T22:03:39.686Z,94940.03
2022-08-17T22:06:25.834Z,94936.06
2022-08-17T22:09:10.148Z,94940.44
2022-08-17T22:11:52.896Z,94942.41
2022-08-17T22:14:25.991Z,94939.75
2022-08-17T22:17:34.544Z,94941.75
2022-08-17T22:20:09.541Z,94936.28
2022-08-17T22:23:18.121Z,94937.69
2022-08-17T22:26:06.755Z,94930.94
2022-08-17T22:28:51.861Z,94930.28
2022-08-17T22:31:22.308Z,94927.09
2022-08-17T22:34:07.734Z,94926.75
2022-08-17T22:36:39.189Z,94925.63
2022-08-17T22:39:08.857Z,94926.06
2022-08-17T22:41:50.840Z,94933.84
2022-08-17T22:47:02.826Z,94931.13
2022-08-17T22:49:38.791Z,94936.63
2022-08-17T22:52:29.132Z,94935.72
2022-08-17T22:55:30.588Z,94935.59
2022-08-17T22:58:16.348Z,94924.16
2022-08-17T23:00:46.597Z,94922.78
2022-08-17T23:03:20.625Z,94922.69
2022-08-17T23:06:03.745Z,94921.75
2022-08-17T23:08:31.212Z,94914.47
2022-08-17T23:11:00.282Z,94922.13
2022-08-17T23:13:28.015Z,94930.25
2022-08-17T23:15:54.921Z,94919.25
2022-08-17T23:18:23.832Z,94921.88
2022-08-17T23:20:50.634Z,94918.81
2022-08-17T23:23:23.422Z,94915.00
2022-08-17T23:25:50.785Z,94911.69
2022-08-17T23:28:18.987Z,94913.66
2022-08-17T23:30:48.639Z,94915.72
2022-08-17T23:33:30.147Z,94899.44
2022-08-17T23:36:00.475Z,94913.31
2022-08-17T23:38:28.435Z,94914.91
2022-08-17T23:40:56.894Z,94924.63
2022-08-17T23:43:28.204Z,94926.34
2022-08-17T23:45:59.897Z,94928.66
2022-08-17T23:48:34.949Z,94921.31
2022-08-17T23:51:06.153Z,94917.09
2022-08-17T23:53:36.440Z,94917.44
2022-08-17T23:56:09.144Z,94915.84
2022-08-17T23:58:42.529Z,94904.56
